Palm Springs, Florida
Current Conditions -  °F | °C
As of 7:53 AM on Sunday 21 Dec 2014 (Local Time) from KPBI Reporting Station
Scattered Clouds Scattered Clouds  
Wind Chill: 63°   Ceiling: Unl
Heat Index: 63°   Visibility: 10mi
Dew Point: 61°   Wind: 0mph
Humidity: 93%   Direction: NA
Pressure: 30.09"   Gusts: NA
Location:  26.6205°N, 80.0918°W
Report Text: KPBI 211253Z 00000KT 10SM SCT028 SCT035 SCT250 17/16 A3009 RMK AO2 SLP188 T01720161
Loading
Personal Weather Stations






























Interactive Weather Map New forecast layout! Learn more

10-Day Weather Forecast

Advertisements
Track Severe Weather on mobile